createdAt,value
2022-08-26T00:00:59.622Z,936.29
2022-08-26T00:01:59.756Z,936.3
2022-08-26T00:03:00.146Z,936.28
2022-08-26T00:04:00.412Z,936.3
2022-08-26T00:05:01.370Z,936.31
2022-08-26T00:06:02.291Z,936.29
2022-08-26T00:07:02.749Z,936.27
2022-08-26T00:08:03.569Z,936.29
2022-08-26T00:09:03.848Z,936.24
2022-08-26T00:10:04.925Z,936.24
2022-08-26T00:11:05.454Z,936.2
2022-08-26T00:12:06.285Z,936.23
2022-08-26T00:13:07.227Z,936.18
2022-08-26T00:14:07.235Z,936.14
2022-08-26T00:15:07.439Z,936.15
2022-08-26T00:16:07.691Z,936.14
2022-08-26T00:17:08.781Z,936.12
2022-08-26T00:18:12.425Z,936.16
2022-08-26T00:19:10.034Z,936.11
2022-08-26T00:20:10.950Z,936.16
2022-08-26T00:21:11.836Z,936.14
2022-08-26T00:22:12.390Z,936.14
2022-08-26T00:23:12.712Z,936.14
2022-08-26T00:24:13.013Z,936.16
2022-08-26T00:25:13.893Z,936.1
2022-08-26T00:26:14.989Z,936.12
2022-08-26T00:27:16.049Z,936.12
2022-08-26T00:28:16.417Z,936.11
2022-08-26T00:29:16.567Z,936.09
2022-08-26T00:30:17.344Z,936.09
2022-08-26T00:31:18.232Z,936.08
2022-08-26T00:32:18.825Z,936.12
2022-08-26T00:33:19.288Z,936.11
2022-08-26T00:34:19.834Z,936.11
2022-08-26T00:35:20.751Z,936.1
2022-08-26T00:36:21.855Z,936.08
2022-08-26T00:37:22.600Z,936.07
2022-08-26T00:38:22.848Z,936.08
2022-08-26T00:39:22.913Z,936.06
2022-08-26T00:40:23.179Z,936.13
2022-08-26T00:41:23.444Z,936.13
2022-08-26T00:42:24.118Z,936.14
2022-08-26T00:43:24.522Z,936.13
2022-08-26T00:44:25.046Z,936.16
2022-08-26T00:45:25.805Z,936.2
2022-08-26T00:46:26.353Z,936.17
2022-08-26T00:47:26.604Z,936.18
2022-08-26T00:48:27.105Z,936.22
2022-08-26T00:49:27.936Z,936.18
2022-08-26T00:50:28.040Z,936.18
2022-08-26T00:51:29.616Z,936.19
2022-08-26T00:52:29.302Z,936.14
2022-08-26T00:53:29.771Z,936.19
2022-08-26T00:54:30.190Z,936.17
2022-08-26T00:55:34.604Z,936.16
2022-08-26T00:56:31.672Z,936.17
2022-08-26T00:57:32.242Z,936.15
2022-08-26T00:58:33.108Z,936.12
2022-08-26T00:59:34.070Z,936.13
2022-08-26T01:00:34.444Z,936.13
2022-08-26T01:01:34.633Z,936.1
2022-08-26T01:02:34.774Z,936.13
2022-08-26T01:03:35.759Z,936.1
2022-08-26T01:04:36.198Z,936.12
2022-08-26T01:05:36.892Z,936.14
2022-08-26T01:06:37.009Z,936.13
2022-08-26T01:07:37.549Z,936.11
2022-08-26T01:08:38.649Z,936.1
2022-08-26T01:09:39.407Z,936.1
2022-08-26T01:10:39.814Z,936.12
2022-08-26T01:11:40.028Z,936.13
2022-08-26T01:12:40.788Z,936.15
2022-08-26T01:13:41.283Z,936.12
2022-08-26T01:14:42.118Z,936.13
2022-08-26T01:15:42.745Z,936.09
2022-08-26T01:16:44.249Z,936.1
2022-08-26T01:17:43.823Z,936.09
2022-08-26T01:18:44.524Z,936.14
2022-08-26T01:19:44.911Z,936.05
2022-08-26T01:20:45.157Z,936.08
2022-08-26T01:21:45.885Z,936.05
2022-08-26T01:22:46.651Z,936.02
2022-08-26T01:23:47.437Z,936.05
2022-08-26T01:24:47.921Z,936.13
2022-08-26T01:25:48.325Z,936.08
2022-08-26T01:26:48.813Z,936.07
2022-08-26T01:27:49.048Z,936.09
2022-08-26T01:28:50.570Z,936.09
2022-08-26T01:29:50.330Z,936.04
2022-08-26T01:30:50.666Z,936.03
2022-08-26T01:31:50.845Z,936.03
2022-08-26T01:32:51.157Z,936.04
2022-08-26T01:33:51.418Z,936.04
2022-08-26T01:34:51.870Z,936.03
2022-08-26T01:35:52.567Z,936.01
2022-08-26T01:36:53.179Z,936.01
2022-08-26T01:37:54.218Z,936.03
2022-08-26T01:38:54.670Z,936.02
2022-08-26T01:39:55.034Z,936.03
2022-08-26T01:40:55.261Z,936.03
2022-08-26T01:41:56.041Z,936.01
2022-08-26T01:42:57.000Z,936.04
2022-08-26T01:43:57.154Z,936.04
2022-08-26T01:44:57.626Z,936.03
2022-08-26T01:45:58.753Z,936.01
2022-08-26T01:46:59.268Z,936.03
2022-08-26T01:47:59.397Z,936.03
2022-08-26T01:48:59.937Z,936.03
2022-08-26T01:50:00.959Z,936.03
2022-08-26T01:51:01.086Z,935.98
2022-08-26T01:52:01.419Z,935.98
2022-08-26T01:53:01.814Z,935.98
2022-08-26T01:54:02.570Z,935.98
2022-08-26T01:55:03.615Z,935.97
2022-08-26T01:56:04.350Z,935.99
2022-08-26T01:57:05.362Z,935.95
2022-08-26T01:58:06.313Z,935.96
2022-08-26T01:59:07.115Z,935.96
2022-08-26T02:00:07.572Z,935.98
2022-08-26T02:01:07.921Z,936.01
2022-08-26T02:02:08.761Z,935.99
2022-08-26T02:03:09.280Z,935.97
2022-08-26T02:04:10.043Z,936.03
2022-08-26T02:05:10.758Z,935.99
2022-08-26T02:06:11.251Z,935.99
2022-08-26T02:07:12.312Z,935.94
2022-08-26T02:08:12.917Z,935.99
2022-08-26T02:09:13.361Z,935.97
2022-08-26T02:10:13.738Z,935.99
2022-08-26T02:11:14.421Z,935.99
2022-08-26T02:12:14.842Z,935.97
2022-08-26T02:13:15.789Z,935.96
2022-08-26T02:14:16.556Z,936.01
2022-08-26T02:15:17.579Z,935.97
2022-08-26T02:16:18.165Z,935.99
2022-08-26T02:17:19.077Z,936.01
2022-08-26T02:18:19.739Z,936.01
2022-08-26T02:19:20.135Z,935.98
2022-08-26T02:20:20.351Z,935.97
2022-08-26T02:21:20.578Z,935.99
2022-08-26T02:22:21.286Z,936.01
2022-08-26T02:23:21.721Z,935.99
2022-08-26T02:24:22.583Z,935.99
2022-08-26T02:25:23.343Z,935.98
2022-08-26T02:26:24.244Z,935.96
2022-08-26T02:27:24.963Z,935.91
2022-08-26T02:28:26.721Z,935.91
2022-08-26T02:29:26.934Z,935.91
2022-08-26T02:30:27.374Z,935.93
2022-08-26T02:31:28.471Z,935.9
2022-08-26T02:32:29.241Z,935.91
2022-08-26T02:33:30.151Z,935.95
2022-08-26T02:34:31.183Z,935.96
2022-08-26T02:35:31.777Z,935.96
2022-08-26T02:36:32.076Z,935.94
2022-08-26T02:37:32.215Z,935.97
2022-08-26T02:38:32.510Z,935.94
2022-08-26T02:39:33.118Z,935.94
2022-08-26T02:40:33.856Z,935.94
2022-08-26T02:41:33.986Z,935.92
2022-08-26T02:42:34.764Z,935.93
2022-08-26T02:43:35.710Z,935.9
2022-08-26T02:44:36.034Z,935.9
2022-08-26T02:45:36.951Z,935.87
2022-08-26T02:46:37.876Z,935.91
2022-08-26T02:47:38.151Z,935.88
2022-08-26T02:48:38.400Z,935.9
2022-08-26T02:49:38.935Z,935.87
2022-08-26T02:50:39.663Z,935.87
2022-08-26T02:51:39.882Z,935.84
2022-08-26T02:52:40.741Z,935.88
2022-08-26T02:53:41.416Z,935.86
2022-08-26T02:54:42.067Z,935.87
2022-08-26T02:55:42.945Z,935.86
2022-08-26T02:56:43.591Z,935.83
2022-08-26T02:57:44.251Z,935.83
2022-08-26T02:58:45.270Z,935.82
2022-08-26T02:59:46.080Z,935.84
2022-08-26T03:00:52.475Z,935.84
2022-08-26T03:01:47.236Z,935.85
2022-08-26T03:02:48.208Z,935.78
2022-08-26T03:03:48.498Z,935.84
2022-08-26T03:04:57.590Z,935.83
2022-08-26T03:05:49.540Z,935.81
2022-08-26T03:06:52.671Z,935.84
2022-08-26T03:07:50.630Z,935.85
2022-08-26T03:08:51.584Z,935.85
2022-08-26T03:09:52.196Z,935.83
2022-08-26T03:10:53.105Z,935.84
2022-08-26T03:11:54.050Z,935.82
2022-08-26T03:12:54.331Z,935.82
2022-08-26T03:13:54.644Z,935.81
2022-08-26T03:14:55.582Z,935.8
2022-08-26T03:15:56.444Z,935.8
2022-08-26T03:16:56.909Z,935.81
2022-08-26T03:17:57.878Z,935.78
2022-08-26T03:18:58.477Z,935.77
2022-08-26T03:19:59.500Z,935.75
2022-08-26T03:21:00.429Z,935.75
2022-08-26T03:22:00.935Z,935.78
2022-08-26T03:23:02.002Z,935.76
2022-08-26T03:24:02.931Z,935.76
2022-08-26T03:25:03.307Z,935.74
2022-08-26T03:26:04.225Z,935.78
2022-08-26T03:27:05.810Z,935.72
2022-08-26T03:28:04.632Z,935.74
2022-08-26T03:29:04.843Z,935.75
2022-08-26T03:30:05.169Z,935.76
2022-08-26T03:31:05.844Z,935.78
2022-08-26T03:32:05.954Z,935.74
2022-08-26T03:33:06.298Z,935.78
2022-08-26T03:34:06.740Z,935.75
2022-08-26T03:35:07.015Z,935.76
2022-08-26T03:36:07.503Z,935.7
2022-08-26T03:37:08.303Z,935.76
2022-08-26T03:38:09.252Z,935.79
2022-08-26T03:39:09.977Z,935.76
2022-08-26T03:40:10.610Z,935.75
2022-08-26T03:41:10.714Z,935.79
2022-08-26T03:42:11.712Z,935.74
2022-08-26T03:43:12.661Z,935.78
2022-08-26T03:44:13.019Z,935.76
2022-08-26T03:45:13.161Z,935.74
2022-08-26T03:46:13.764Z,935.76
2022-08-26T03:47:14.740Z,935.77
2022-08-26T03:48:14.937Z,935.76
2022-08-26T03:49:15.253Z,935.75
2022-08-26T03:50:15.856Z,935.77
2022-08-26T03:51:18.062Z,935.75
2022-08-26T03:52:17.531Z,935.76
2022-08-26T03:53:19.907Z,935.75
2022-08-26T03:54:18.728Z,935.73
2022-08-26T03:55:19.690Z,935.78
2022-08-26T03:56:20.014Z,935.75
2022-08-26T03:57:20.633Z,935.72
2022-08-26T03:58:20.905Z,935.71
2022-08-26T03:59:21.455Z,935.73
2022-08-26T04:00:21.712Z,935.73
2022-08-26T04:01:22.605Z,935.72
2022-08-26T04:02:23.398Z,935.72
2022-08-26T04:03:24.177Z,935.68
2022-08-26T04:04:24.983Z,935.7
2022-08-26T04:05:25.182Z,935.72
2022-08-26T04:06:25.798Z,935.72
2022-08-26T04:07:26.090Z,935.72
2022-08-26T04:08:27.011Z,935.74
2022-08-26T04:09:27.191Z,935.75
2022-08-26T04:10:28.853Z,935.76
2022-08-26T04:11:28.373Z,935.78
2022-08-26T04:12:29.427Z,935.75
2022-08-26T04:13:29.906Z,935.76
2022-08-26T04:14:30.879Z,935.76
2022-08-26T04:15:31.650Z,935.76
2022-08-26T04:16:32.261Z,935.76
2022-08-26T04:17:32.472Z,935.75
2022-08-26T04:18:33.220Z,935.78
2022-08-26T04:19:34.194Z,935.78
2022-08-26T04:20:35.212Z,935.75
2022-08-26T04:21:35.436Z,935.76
2022-08-26T04:22:36.443Z,935.75
2022-08-26T04:23:47.395Z,935.78
2022-08-26T04:24:37.803Z,935.74
2022-08-26T04:25:38.326Z,935.72
2022-08-26T04:26:39.441Z,935.73
2022-08-26T04:27:39.337Z,935.72
2022-08-26T04:28:40.127Z,935.73
2022-08-26T04:29:40.343Z,935.76
2022-08-26T04:30:41.109Z,935.78
2022-08-26T04:31:41.446Z,935.74
2022-08-26T04:32:42.048Z,935.71
2022-08-26T04:33:43.031Z,935.72
2022-08-26T04:34:43.924Z,935.71
2022-08-26T04:35:44.891Z,935.69
2022-08-26T04:36:45.914Z,935.71
2022-08-26T04:37:46.681Z,935.7
2022-08-26T04:38:47.471Z,935.66
2022-08-26T04:39:48.598Z,935.65
2022-08-26T04:40:49.530Z,935.69
2022-08-26T04:41:49.848Z,935.69
2022-08-26T04:42:50.217Z,935.7
2022-08-26T04:43:50.949Z,935.67
2022-08-26T04:44:51.193Z,935.69
2022-08-26T04:45:51.415Z,935.71
2022-08-26T04:46:52.485Z,935.74
2022-08-26T04:47:52.652Z,935.68
2022-08-26T04:48:53.742Z,935.74
2022-08-26T04:49:54.681Z,935.71
2022-08-26T04:50:55.647Z,935.66
2022-08-26T04:51:56.389Z,935.71
2022-08-26T04:52:57.241Z,935.73
2022-08-26T04:53:57.892Z,935.71
2022-08-26T04:54:58.855Z,935.73
2022-08-26T04:55:59.383Z,935.72
2022-08-26T04:56:59.494Z,935.73
2022-08-26T04:58:00.339Z,935.76
2022-08-26T04:59:00.957Z,935.72
2022-08-26T05:00:01.295Z,935.73
2022-08-26T05:01:01.633Z,935.75
2022-08-26T05:02:02.350Z,935.72
2022-08-26T05:03:03.235Z,935.74
2022-08-26T05:04:03.476Z,935.76
2022-08-26T05:05:04.155Z,935.72
2022-08-26T05:06:05.139Z,935.74
2022-08-26T05:07:05.912Z,935.77
2022-08-26T05:08:06.737Z,935.76
2022-08-26T05:09:07.513Z,935.75
2022-08-26T05:10:08.700Z,935.75
2022-08-26T05:11:09.416Z,935.79
2022-08-26T05:12:09.560Z,935.79
2022-08-26T05:13:10.736Z,935.82
2022-08-26T05:14:10.486Z,935.8
2022-08-26T05:15:11.376Z,935.84
2022-08-26T05:16:11.926Z,935.82
2022-08-26T05:17:15.000Z,935.85
2022-08-26T05:18:13.871Z,935.83
2022-08-26T05:19:14.107Z,935.89
2022-08-26T05:20:14.568Z,935.87
2022-08-26T05:21:15.669Z,935.87
2022-08-26T05:22:16.488Z,935.9
2022-08-26T05:23:17.431Z,935.89
2022-08-26T05:24:17.869Z,935.92
2022-08-26T05:25:18.657Z,935.95
2022-08-26T05:26:22.863Z,935.91
2022-08-26T05:27:20.323Z,935.92
2022-08-26T05:28:20.829Z,935.91
2022-08-26T05:29:21.442Z,935.9
2022-08-26T05:30:22.053Z,935.88
2022-08-26T05:31:22.778Z,935.88
2022-08-26T05:32:23.520Z,935.91
2022-08-26T05:33:23.775Z,935.88
2022-08-26T05:34:25.820Z,935.89
2022-08-26T05:35:24.932Z,935.93
2022-08-26T05:36:26.792Z,935.93
2022-08-26T05:37:26.007Z,935.89
2022-08-26T05:38:30.185Z,935.91
2022-08-26T05:39:26.772Z,935.88
2022-08-26T05:40:27.739Z,935.88
2022-08-26T05:41:34.065Z,935.94
2022-08-26T05:42:29.132Z,935.94
2022-08-26T05:43:29.302Z,935.94
2022-08-26T05:44:29.452Z,935.92
2022-08-26T05:45:29.861Z,935.96
2022-08-26T05:46:30.299Z,935.95
2022-08-26T05:47:30.642Z,935.95
2022-08-26T05:48:31.079Z,935.95
2022-08-26T05:49:32.177Z,935.97
2022-08-26T05:50:32.806Z,935.95
2022-08-26T05:51:33.655Z,935.95
2022-08-26T05:52:33.992Z,935.95
2022-08-26T05:53:34.918Z,935.93
2022-08-26T05:54:35.710Z,935.9
2022-08-26T05:55:36.063Z,935.92
2022-08-26T05:56:36.574Z,935.92
2022-08-26T05:57:40.436Z,935.89
2022-08-26T05:58:37.355Z,935.9
2022-08-26T05:59:38.148Z,935.94
2022-08-26T06:00:39.091Z,935.92
2022-08-26T06:01:39.305Z,935.92
2022-08-26T06:02:40.215Z,935.89
2022-08-26T06:03:40.389Z,935.96
2022-08-26T06:04:41.294Z,935.95
2022-08-26T06:05:41.518Z,935.95
2022-08-26T06:06:45.068Z,935.94
2022-08-26T06:07:42.867Z,935.96
2022-08-26T06:08:43.713Z,935.95
2022-08-26T06:09:44.187Z,935.99
2022-08-26T06:10:45.157Z,936.02
2022-08-26T06:11:45.940Z,936.03
2022-08-26T06:12:46.177Z,936.08
2022-08-26T06:13:47.063Z,936.04
2022-08-26T06:14:49.003Z,936.07
2022-08-26T06:15:48.178Z,936.08
2022-08-26T06:16:48.581Z,936.06
2022-08-26T06:17:48.811Z,936.06
2022-08-26T06:18:49.522Z,936.08
2022-08-26T06:19:50.383Z,936.09
2022-08-26T06:20:57.575Z,936.08
2022-08-26T06:21:51.248Z,936.08
2022-08-26T06:22:51.159Z,936.09
2022-08-26T06:23:52.125Z,936.11
2022-08-26T06:24:52.479Z,936.11
2022-08-26T06:25:52.609Z,936.1
2022-08-26T06:26:53.620Z,936.17
2022-08-26T06:27:54.062Z,936.16
2022-08-26T06:28:54.228Z,936.19
2022-08-26T06:29:54.765Z,936.16
2022-08-26T06:30:55.133Z,936.19
2022-08-26T06:31:56.330Z,936.2
2022-08-26T06:32:56.940Z,936.21
2022-08-26T06:33:57.955Z,936.24
2022-08-26T06:34:58.436Z,936.25
2022-08-26T06:35:59.191Z,936.24
2022-08-26T06:37:01.254Z,936.24
2022-08-26T06:38:00.583Z,936.22
2022-08-26T06:39:01.236Z,936.23
2022-08-26T06:40:01.494Z,936.25
2022-08-26T06:41:02.345Z,936.28
2022-08-26T06:42:03.333Z,936.27
2022-08-26T06:43:03.309Z,936.31
2022-08-26T06:44:03.705Z,936.3
2022-08-26T06:45:04.258Z,936.35
2022-08-26T06:46:05.149Z,936.28
2022-08-26T06:47:05.339Z,936.29
2022-08-26T06:48:05.815Z,936.29
2022-08-26T06:49:06.337Z,936.26
2022-08-26T06:50:07.239Z,936.27
2022-08-26T06:51:08.258Z,936.27
2022-08-26T06:52:08.809Z,936.25
2022-08-26T06:53:09.630Z,936.28
2022-08-26T06:54:09.943Z,936.32
2022-08-26T06:55:10.990Z,936.28
2022-08-26T06:56:11.244Z,936.28
2022-08-26T06:57:11.666Z,936.29
2022-08-26T06:58:11.966Z,936.29
2022-08-26T06:59:13.001Z,936.26
2022-08-26T07:00:14.079Z,936.27
2022-08-26T07:01:14.843Z,936.28
2022-08-26T07:02:14.984Z,936.29
2022-08-26T07:03:15.789Z,936.27
2022-08-26T07:06:19.955Z,936.26
2022-08-26T07:07:21.662Z,936.25
2022-08-26T07:08:21.013Z,936.26
2022-08-26T07:09:21.817Z,936.28
2022-08-26T07:10:22.106Z,936.29
2022-08-26T07:11:22.480Z,936.29
2022-08-26T07:12:23.258Z,936.27
2022-08-26T07:13:30.480Z,936.28
2022-08-26T07:14:24.253Z,936.24
2022-08-26T07:15:27.231Z,936.27
2022-08-26T07:17:26.563Z,936.3
2022-08-26T07:18:27.229Z,936.31
2022-08-26T07:20:28.861Z,936.3
2022-08-26T07:21:29.048Z,936.28
2022-08-26T07:22:30.038Z,936.32
2022-08-26T07:23:30.316Z,936.32
2022-08-26T07:25:32.060Z,936.33
2022-08-26T07:26:32.503Z,936.34
2022-08-26T07:27:33.077Z,936.31
2022-08-26T07:28:33.738Z,936.37
2022-08-26T07:29:34.041Z,936.32
2022-08-26T07:30:34.853Z,936.39
2022-08-26T07:31:39.319Z,936.35
2022-08-26T07:32:36.104Z,936.36
2022-08-26T07:33:36.650Z,936.32
2022-08-26T07:34:36.857Z,936.36
2022-08-26T07:35:37.953Z,936.36
2022-08-26T07:36:38.464Z,936.36
2022-08-26T07:37:39.454Z,936.36
2022-08-26T07:38:39.619Z,936.36
2022-08-26T07:39:40.494Z,936.34
2022-08-26T07:40:40.796Z,936.35
2022-08-26T07:41:41.385Z,936.38
2022-08-26T07:42:41.643Z,936.37
2022-08-26T07:43:42.308Z,936.37
2022-08-26T07:44:43.145Z,936.35
2022-08-26T07:45:43.699Z,936.35
2022-08-26T07:46:44.075Z,936.35
2022-08-26T07:47:55.981Z,936.34
2022-08-26T07:48:56.240Z,936.37
2022-08-26T07:49:56.998Z,936.38
2022-08-26T07:50:57.866Z,936.36
2022-08-26T07:51:58.080Z,936.36
2022-08-26T07:52:59.099Z,936.34
2022-08-26T07:53:59.831Z,936.35
2022-08-26T07:55:00.127Z,936.35
2022-08-26T07:56:00.332Z,936.36
2022-08-26T07:57:01.308Z,936.32
2022-08-26T08:00:05.401Z,936.36
2022-08-26T08:01:05.632Z,936.37
2022-08-26T08:02:06.388Z,936.37
2022-08-26T08:03:07.523Z,936.37
2022-08-26T08:04:08.158Z,936.37
2022-08-26T08:05:09.018Z,936.4
2022-08-26T08:06:09.157Z,936.38
2022-08-26T08:07:11.449Z,936.36
2022-08-26T08:08:27.467Z,936.34
2022-08-26T08:09:11.868Z,936.36
2022-08-26T08:10:12.315Z,936.36
2022-08-26T08:11:12.607Z,936.37
2022-08-26T08:12:14.089Z,936.35
2022-08-26T08:13:14.552Z,936.37
2022-08-26T08:14:15.187Z,936.4
2022-08-26T08:15:16.092Z,936.35
2022-08-26T08:16:16.239Z,936.33
2022-08-26T08:17:16.483Z,936.3
2022-08-26T08:18:16.912Z,936.33
2022-08-26T08:19:17.687Z,936.31
2022-08-26T08:20:18.862Z,936.3
2022-08-26T08:21:24.990Z,936.3
2022-08-26T08:22:25.451Z,936.29
2022-08-26T08:23:26.141Z,936.3
2022-08-26T08:24:27.226Z,936.29
2022-08-26T08:25:27.975Z,936.28
2022-08-26T08:26:28.846Z,936.28
2022-08-26T08:27:29.775Z,936.24
2022-08-26T08:28:30.438Z,936.3
2022-08-26T08:29:30.701Z,936.32
2022-08-26T08:30:31.235Z,936.31
2022-08-26T08:31:58.208Z,936.29
2022-08-26T08:32:58.350Z,936.31
2022-08-26T08:33:58.733Z,936.28
2022-08-26T08:34:58.964Z,936.23
2022-08-26T08:35:59.083Z,936.21
2022-08-26T08:36:59.570Z,936.22
2022-08-26T08:38:00.472Z,936.24
2022-08-26T08:39:00.886Z,936.26
2022-08-26T08:40:01.684Z,936.24
2022-08-26T08:41:02.464Z,936.23
2022-08-26T08:42:03.170Z,936.26
2022-08-26T08:43:03.322Z,936.26
2022-08-26T08:44:03.973Z,936.25
2022-08-26T08:45:04.553Z,936.25
2022-08-26T08:46:05.069Z,936.28
2022-08-26T08:47:06.153Z,936.21
2022-08-26T08:48:07.294Z,936.21
2022-08-26T08:49:07.643Z,936.18
2022-08-26T08:50:07.871Z,936.17
2022-08-26T08:51:08.785Z,936.19
2022-08-26T08:52:09.428Z,936.18
2022-08-26T08:53:10.448Z,936.18
2022-08-26T08:54:11.058Z,936.21
2022-08-26T08:55:14.779Z,936.23
2022-08-26T08:56:13.074Z,936.18
2022-08-26T08:57:13.380Z,936.23
2022-08-26T08:58:13.867Z,936.22
2022-08-26T08:59:13.920Z,936.25
2022-08-26T09:00:14.712Z,936.22
2022-08-26T09:01:15.607Z,936.26
2022-08-26T09:02:16.403Z,936.23
2022-08-26T09:03:16.544Z,936.24
2022-08-26T09:04:17.421Z,936.22
2022-08-26T09:05:18.229Z,936.2
2022-08-26T09:06:18.641Z,936.26
2022-08-26T09:07:19.674Z,936.25
2022-08-26T09:08:20.621Z,936.31
2022-08-26T09:09:21.140Z,936.32
2022-08-26T09:10:22.187Z,936.34
2022-08-26T09:11:22.971Z,936.33
2022-08-26T09:12:29.273Z,936.32
2022-08-26T09:13:24.860Z,936.34
2022-08-26T09:14:24.568Z,936.35
2022-08-26T09:15:26.488Z,936.34
2022-08-26T09:16:25.255Z,936.32
2022-08-26T09:17:25.318Z,936.32
2022-08-26T09:18:25.491Z,936.35
2022-08-26T09:19:26.586Z,936.34
2022-08-26T09:20:26.901Z,936.33
2022-08-26T09:21:27.229Z,936.35
2022-08-26T09:22:27.830Z,936.32
2022-08-26T09:23:28.837Z,936.34
2022-08-26T09:24:29.442Z,936.33
2022-08-26T09:25:30.420Z,936.31
2022-08-26T09:26:31.356Z,936.33
2022-08-26T09:27:31.861Z,936.35
2022-08-26T09:28:32.249Z,936.35
2022-08-26T09:29:32.586Z,936.33
2022-08-26T09:30:33.037Z,936.35
2022-08-26T09:31:33.801Z,936.36
2022-08-26T09:32:34.481Z,936.4
2022-08-26T09:33:35.266Z,936.36
2022-08-26T09:34:35.904Z,936.35
2022-08-26T09:35:36.243Z,936.34
2022-08-26T09:36:39.636Z,936.38
2022-08-26T09:37:37.310Z,936.36
2022-08-26T09:38:37.825Z,936.35
2022-08-26T09:39:38.215Z,936.33
2022-08-26T09:40:38.257Z,936.34
2022-08-26T09:41:38.775Z,936.35
2022-08-26T09:42:39.808Z,936.32
2022-08-26T09:43:40.029Z,936.35
2022-08-26T09:44:40.201Z,936.35
2022-08-26T09:45:40.570Z,936.26
2022-08-26T09:46:41.613Z,936.25
2022-08-26T09:47:42.490Z,936.23
2022-08-26T09:48:43.104Z,936.23
2022-08-26T09:49:43.984Z,936.26
2022-08-26T09:50:44.534Z,936.22
2022-08-26T09:51:45.230Z,936.21
2022-08-26T09:52:45.491Z,936.23
2022-08-26T09:53:46.574Z,936.25
2022-08-26T09:54:47.174Z,936.22
2022-08-26T09:55:47.671Z,936.17
2022-08-26T09:56:48.148Z,936.18
2022-08-26T09:57:48.981Z,936.2
2022-08-26T09:58:49.734Z,936.22
2022-08-26T09:59:50.592Z,936.17
2022-08-26T10:00:50.793Z,936.17
2022-08-26T10:01:51.920Z,936.18
2022-08-26T10:02:52.732Z,936.18
2022-08-26T10:03:51.963Z,936.14
2022-08-26T10:04:52.241Z,936.09
2022-08-26T10:05:52.372Z,936.07
2022-08-26T10:06:52.951Z,936.07
2022-08-26T10:07:53.163Z,936.05
2022-08-26T10:08:54.287Z,936.01
2022-08-26T10:09:55.145Z,936.01
2022-08-26T10:10:55.855Z,936.01
2022-08-26T10:11:56.934Z,936.01
2022-08-26T10:12:57.462Z,936
2022-08-26T10:13:58.064Z,935.96
2022-08-26T10:14:58.746Z,935.92
2022-08-26T10:15:59.608Z,935.98
2022-08-26T10:17:00.603Z,935.98
2022-08-26T10:18:01.144Z,935.92
2022-08-26T10:19:01.855Z,935.92
2022-08-26T10:20:02.298Z,935.91
2022-08-26T10:21:02.599Z,935.91
2022-08-26T10:22:03.427Z,935.93
2022-08-26T10:23:04.422Z,935.95
2022-08-26T10:24:04.722Z,935.95
2022-08-26T10:25:05.123Z,935.88
2022-08-26T10:26:05.592Z,935.87
2022-08-26T10:27:06.188Z,935.86
2022-08-26T10:28:07.095Z,935.81
2022-08-26T10:29:07.332Z,935.81
2022-08-26T10:30:08.381Z,935.84
2022-08-26T10:31:08.713Z,935.83
2022-08-26T10:32:08.967Z,935.83
2022-08-26T10:33:09.554Z,935.82
2022-08-26T10:34:10.335Z,935.82
2022-08-26T10:35:10.787Z,935.81
2022-08-26T10:36:12.304Z,935.77
2022-08-26T10:37:15.123Z,935.76
2022-08-26T10:38:13.872Z,935.76
2022-08-26T10:39:14.735Z,935.76
2022-08-26T10:40:15.341Z,935.71
2022-08-26T10:41:15.868Z,935.7
2022-08-26T10:42:16.290Z,935.72
2022-08-26T10:43:17.059Z,935.68
2022-08-26T10:44:17.270Z,935.69
2022-08-26T10:45:17.419Z,935.66
2022-08-26T10:46:18.191Z,935.65
2022-08-26T10:47:19.229Z,935.63
2022-08-26T10:48:20.154Z,935.63
2022-08-26T10:49:20.819Z,935.61
2022-08-26T10:50:21.500Z,935.62
2022-08-26T10:51:22.448Z,935.64
2022-08-26T10:52:23.010Z,935.63
2022-08-26T10:53:27.207Z,935.62
2022-08-26T10:54:27.665Z,935.57
2022-08-26T10:55:28.644Z,935.61
2022-08-26T10:56:29.466Z,935.6
2022-08-26T10:57:29.732Z,935.58
2022-08-26T10:58:30.649Z,935.54
2022-08-26T10:59:31.397Z,935.56
2022-08-26T11:00:32.323Z,935.58
2022-08-26T11:01:32.544Z,935.54
2022-08-26T11:02:33.222Z,935.56
2022-08-26T11:03:34.248Z,935.54
2022-08-26T11:04:34.904Z,935.53
2022-08-26T11:05:35.366Z,935.46
2022-08-26T11:06:37.032Z,935.47
2022-08-26T11:07:36.684Z,935.43
2022-08-26T11:08:37.611Z,935.42
2022-08-26T11:09:38.044Z,935.42
2022-08-26T11:10:38.957Z,935.41
2022-08-26T11:11:39.278Z,935.36
2022-08-26T11:12:39.489Z,935.37
2022-08-26T11:13:41.643Z,935.35
2022-08-26T11:14:46.112Z,935.33
2022-08-26T11:15:40.908Z,935.35
2022-08-26T11:16:42.780Z,935.33
2022-08-26T11:17:42.173Z,935.33
2022-08-26T11:18:43.129Z,935.35
2022-08-26T11:20:00.051Z,935.31
2022-08-26T11:20:44.911Z,935.32
2022-08-26T11:21:45.212Z,935.28
2022-08-26T11:22:47.746Z,935.29
2022-08-26T11:23:50.322Z,935.31
2022-08-26T11:24:47.554Z,935.28
2022-08-26T11:25:47.819Z,935.31
2022-08-26T11:26:49.425Z,935.29
2022-08-26T11:27:49.132Z,935.26
2022-08-26T11:28:50.120Z,935.25
2022-08-26T11:29:50.768Z,935.28
2022-08-26T11:30:54.321Z,935.18
2022-08-26T11:31:51.793Z,935.2
2022-08-26T11:32:52.044Z,935.19
2022-08-26T11:33:52.486Z,935.18
2022-08-26T11:34:52.674Z,935.16
2022-08-26T11:35:53.659Z,935.13
2022-08-26T11:36:54.626Z,935.13
2022-08-26T11:37:54.935Z,935.06
2022-08-26T11:38:55.248Z,935.15
2022-08-26T11:39:56.873Z,935.1
2022-08-26T11:40:56.311Z,935.11
2022-08-26T11:41:57.822Z,935.16
2022-08-26T11:42:57.673Z,935.14
2022-08-26T11:43:58.096Z,935.1
2022-08-26T11:44:58.628Z,935.13
2022-08-26T11:45:59.206Z,935.09
2022-08-26T11:46:59.342Z,935.07
2022-08-26T11:47:59.858Z,935.09
2022-08-26T11:48:59.990Z,935.09
2022-08-26T11:50:00.742Z,935.09
2022-08-26T11:51:01.764Z,935.08
2022-08-26T11:52:02.868Z,935.1
2022-08-26T11:53:03.474Z,935.13
2022-08-26T11:54:04.270Z,935.11
2022-08-26T11:55:04.702Z,935.04
2022-08-26T11:56:05.671Z,935.05
2022-08-26T11:57:09.579Z,935.01
2022-08-26T11:58:07.411Z,935.03
2022-08-26T11:59:08.273Z,934.99
2022-08-26T12:00:10.780Z,934.94
2022-08-26T12:01:11.474Z,934.96
2022-08-26T12:02:10.813Z,935.02
2022-08-26T12:03:11.933Z,934.96
2022-08-26T12:04:12.074Z,934.99
2022-08-26T12:05:12.742Z,935.01
2022-08-26T12:06:14.093Z,934.99
2022-08-26T12:07:13.940Z,934.98
2022-08-26T12:08:14.195Z,935
2022-08-26T12:09:14.914Z,934.99
2022-08-26T12:10:15.073Z,934.98
2022-08-26T12:11:15.919Z,934.93
2022-08-26T12:12:16.153Z,934.93
2022-08-26T12:13:16.820Z,934.87
2022-08-26T12:14:17.730Z,934.96
2022-08-26T12:15:18.241Z,934.94
2022-08-26T12:16:18.553Z,934.92
2022-08-26T12:17:19.281Z,934.94
2022-08-26T12:18:20.734Z,934.94
2022-08-26T12:19:19.756Z,934.91
2022-08-26T12:20:20.015Z,934.87
2022-08-26T12:21:20.651Z,934.84
2022-08-26T12:22:21.442Z,934.84
2022-08-26T12:23:21.771Z,934.93
2022-08-26T12:24:22.234Z,934.9
2022-08-26T12:25:23.266Z,934.97
2022-08-26T12:26:23.431Z,934.93
2022-08-26T12:27:23.738Z,934.89
2022-08-26T12:28:24.216Z,934.86
2022-08-26T12:29:26.985Z,934.89
2022-08-26T12:30:26.412Z,934.89
2022-08-26T12:31:26.922Z,934.85
2022-08-26T12:32:27.139Z,934.89
2022-08-26T12:33:28.059Z,934.86
2022-08-26T12:34:28.404Z,934.82
2022-08-26T12:35:29.476Z,934.81
2022-08-26T12:36:30.111Z,934.78
2022-08-26T12:37:30.726Z,934.8
2022-08-26T12:38:31.070Z,934.79
2022-08-26T12:39:32.013Z,934.81
2022-08-26T12:40:33.088Z,934.82
2022-08-26T12:41:33.764Z,934.81
2022-08-26T12:42:34.354Z,934.79
2022-08-26T12:43:35.018Z,934.79
2022-08-26T12:44:36.023Z,934.77
2022-08-26T12:45:36.764Z,934.76
2022-08-26T12:46:36.930Z,934.81